Time;durP1;ratioP1;P1;durP2;ratioP2;P2;SDS_P1;SDS_P2;PMS_P1;PMS_P2;Temp;Humidity;BMP_temperature;BMP_pressure;BME280_temperature;BME280_humidity;BME280_pressure;Samples;Min_cycle;Max_cycle;Signal;HPM_P1;HPM_P2
2023/01/12 00:01:27;;;;;;;6.40;2.40;;;6.30;99.90;;;;;;5014482;28;20182;-84
2023/01/12 00:03:53;;;;;;;8.00;2.10;;;6.30;99.90;;;;;;5014475;28;20181;-84
2023/01/12 00:06:20;;;;;;;6.90;2.10;;;6.30;99.90;;;;;;5014620;28;20178;-83
2023/01/12 00:08:47;;;;;;;7.77;2.27;;;6.30;99.90;;;;;;5014467;28;20201;-83
2023/01/12 00:11:13;;;;;;;4.97;2.20;;;6.30;99.90;;;;;;4996806;28;20184;-83
2023/01/12 00:13:38;;;;;;;9.10;2.63;;;6.30;99.90;;;;;;5014699;28;20221;-84
2023/01/12 00:18:49;;;;;;;8.13;2.33;;;6.30;99.90;;;;;;5014793;28;20313;-84
2023/01/12 00:21:16;;;;;;;3.23;2.10;;;6.30;99.90;;;;;;5013972;28;20224;-84
2023/01/12 00:23:42;;;;;;;7.47;2.23;;;6.30;99.90;;;;;;5014436;28;20185;-84
2023/01/12 00:26:08;;;;;;;8.90;2.07;;;6.30;99.90;;;;;;5014527;28;20178;-84
2023/01/12 00:28:35;;;;;;;7.03;2.00;;;6.30;99.90;;;;;;4997067;28;20209;-83
2023/01/12 00:31:07;;;;;;;7.07;2.10;;;6.30;99.90;;;;;;5014528;28;20178;-83
2023/01/12 00:33:34;;;;;;;6.63;2.30;;;6.30;99.90;;;;;;4996571;28;20209;-83
2023/01/12 00:36:10;;;;;;;8.83;2.10;;;6.30;99.90;;;;;;5014480;28;20262;-83
2023/01/12 00:38:37;;;;;;;8.97;2.23;;;6.30;99.90;;;;;;4996682;28;20196;-84
2023/01/12 00:41:07;;;;;;;8.23;2.23;;;6.30;99.90;;;;;;4996955;28;20174;-84
2023/01/12 00:46:17;;;;;;;9.73;1.90;;;6.30;99.90;;;;;;5014904;28;20265;-84
2023/01/12 00:48:43;;;;;;;9.17;2.20;;;6.30;99.90;;;;;;4997259;28;20209;-83
2023/01/12 00:51:09;;;;;;;4.50;1.93;;;6.30;99.90;;;;;;4997089;28;20183;-83
2023/01/12 00:53:35;;;;;;;6.57;1.83;;;6.30;99.90;;;;;;4996849;28;20210;-84
2023/01/12 00:56:04;;;;;;;5.97;2.30;;;6.30;99.90;;;;;;4997491;28;20173;-84
2023/01/12 00:58:29;;;;;;;5.60;2.13;;;6.30;99.90;;;;;;5013252;28;20248;-83
2023/01/12 01:01:06;;;;;;;8.63;2.10;;;6.30;99.90;;;;;;5012782;28;20267;-84
2023/01/12 01:03:32;;;;;;;7.97;1.60;;;6.30;99.90;;;;;;4995610;28;20191;-84
2023/01/12 01:06:07;;;;;;;10.47;2.10;;;6.30;99.90;;;;;;4995742;28;20182;-84
2023/01/12 01:08:36;;;;;;;7.10;1.63;;;6.40;99.90;;;;;;5019192;22;20233;-85
2023/01/12 01:11:07;;;;;;;8.33;2.20;;;6.40;99.90;;;;;;5011517;28;20174;-85
2023/01/12 01:13:35;;;;;;;7.87;2.07;;;6.40;99.90;;;;;;5012350;28;20216;-85
2023/01/12 01:16:02;;;;;;;8.90;2.00;;;6.40;99.90;;;;;;4994768;28;20170;-85
2023/01/12 01:18:28;;;;;;;6.47;2.00;;;6.40;99.90;;;;;;4994449;28;20332;-84
2023/01/12 01:20:54;;;;;;;8.57;2.10;;;6.40;99.90;;;;;;4994209;28;20263;-85
2023/01/12 01:23:21;;;;;;;4.67;1.80;;;6.40;99.90;;;;;;5012091;28;20196;-85
2023/01/12 01:25:47;;;;;;;8.90;2.27;;;6.40;99.90;;;;;;5012061;28;20212;-85
2023/01/12 01:28:14;;;;;;;10.00;2.13;;;6.40;99.90;;;;;;5012100;28;20196;-84
2023/01/12 01:30:40;;;;;;;6.47;2.33;;;6.40;99.90;;;;;;4994380;28;20197;-85
2023/01/12 01:33:05;;;;;;;8.97;2.10;;;6.40;99.90;;;;;;4994474;28;20625;-84
2023/01/12 01:35:31;;;;;;;6.37;2.30;;;6.40;99.90;;;;;;4994566;28;20173;-85
2023/01/12 01:37:56;;;;;;;5.50;2.00;;;6.40;99.90;;;;;;5011840;28;20252;-85
2023/01/12 01:40:22;;;;;;;8.77;2.57;;;6.40;99.90;;;;;;5011664;28;20175;-85
2023/01/12 01:42:48;;;;;;;7.70;2.10;;;6.50;99.90;;;;;;5011827;28;20362;-85
2023/01/12 01:45:15;;;;;;;7.03;2.27;;;6.50;99.90;;;;;;4994527;28;20189;-85
2023/01/12 01:47:52;;;;;;;6.50;2.00;;;6.50;99.90;;;;;;5012014;28;20202;-85
2023/01/12 01:50:33;;;;;;;8.97;2.40;;;6.50;99.90;;;;;;5011781;28;20563;-84
2023/01/12 01:53:03;;;;;;;7.00;1.97;;;6.50;99.90;;;;;;5011910;28;20202;-85
2023/01/12 01:55:35;;;;;;;6.43;1.93;;;6.50;99.90;;;;;;4994441;28;20194;-84
2023/01/12 01:58:10;;;;;;;6.80;2.10;;;6.60;99.90;;;;;;4994147;28;20313;-85
2023/01/12 02:00:37;;;;;;;7.47;2.27;;;6.60;99.90;;;;;;4994205;28;20179;-85
2023/01/12 02:03:05;;;;;;;5.13;2.00;;;6.50;99.90;;;;;;4994382;28;20668;-84
2023/01/12 02:05:31;;;;;;;7.80;2.40;;;6.60;99.90;;;;;;4995421;28;20212;-85
2023/01/12 02:08:04;;;;;;;6.80;2.33;;;6.60;99.90;;;;;;5015033;28;20216;-85
2023/01/12 02:10:30;;;;;;;8.17;2.10;;;6.60;99.90;;;;;;4997528;28;20181;-85
2023/01/12 02:16:19;;;;;;;5.37;1.90;;;6.60;99.90;;;;;;5015394;28;20193;-85
2023/01/12 02:19:22;;;;;;;9.33;2.40;;;6.60;99.90;;;;;;5015036;28;20205;-84
2023/01/12 02:22:23;;;;;;;9.67;2.20;;;6.70;99.90;;;;;;4997490;28;20200;-85
2023/01/12 02:25:25;;;;;;;8.53;2.03;;;6.70;99.90;;;;;;4991727;28;20184;-84
2023/01/12 02:28:10;;;;;;;8.30;2.00;;;6.70;99.90;;;;;;4997266;28;20192;-85
2023/01/12 02:31:07;;;;;;;6.67;1.80;;;6.70;99.90;;;;;;5015062;28;20166;-84
2023/01/12 02:33:58;;;;;;;3.47;1.67;;;6.70;99.90;;;;;;5014775;28;20210;-85
2023/01/12 02:36:28;;;;;;;5.03;1.77;;;6.70;99.90;;;;;;5014672;28;20201;-84
2023/01/12 02:39:02;;;;;;;7.17;2.63;;;6.70;99.90;;;;;;4997223;28;20187;-84
2023/01/12 02:45:07;;;;;;;10.97;2.23;;;6.70;99.90;;;;;;5014929;28;20609;-84
2023/01/12 02:47:42;;;;;;;8.47;2.27;;;6.70;99.90;;;;;;4997073;28;20683;-85
2023/01/12 02:50:12;;;;;;;6.80;1.90;;;6.70;99.90;;;;;;5014463;28;20173;-85
2023/01/12 02:52:43;;;;;;;7.83;1.93;;;6.80;99.90;;;;;;4996946;28;20209;-85
2023/01/12 02:55:10;;;;;;;6.20;1.87;;;6.80;99.90;;;;;;4996834;28;20178;-84
2023/01/12 02:57:37;;;;;;;10.27;2.03;;;6.70;99.90;;;;;;4996770;28;20568;-85
2023/01/12 03:00:04;;;;;;;8.47;2.43;;;6.70;99.90;;;;;;4996754;28;20217;-85
2023/01/12 03:02:30;;;;;;;9.60;2.27;;;6.70;99.90;;;;;;4996287;28;20553;-85
2023/01/12 03:04:56;;;;;;;10.17;2.50;;;6.70;99.90;;;;;;5014263;28;20190;-84
2023/01/12 03:07:37;;;;;;;7.43;1.80;;;6.70;99.90;;;;;;5014075;28;20202;-85
2023/01/12 03:10:14;;;;;;;5.93;1.70;;;6.70;99.90;;;;;;5013937;28;20261;-84
2023/01/12 03:12:42;;;;;;;6.07;2.00;;;6.70;99.90;;;;;;5013805;28;20678;-85
2023/01/12 03:15:10;;;;;;;7.70;2.23;;;6.70;99.90;;;;;;4996519;28;20174;-85
2023/01/12 03:17:38;;;;;;;6.57;2.07;;;6.70;99.90;;;;;;4995857;28;20285;-85
2023/01/12 03:20:17;;;;;;;8.17;2.10;;;6.70;99.90;;;;;;5013742;28;20176;-84
2023/01/12 03:22:48;;;;;;;7.93;2.47;;;6.70;99.90;;;;;;5014137;28;20594;-84
2023/01/12 03:25:16;;;;;;;5.80;1.83;;;6.70;99.90;;;;;;5014001;28;20179;-85
2023/01/12 03:27:47;;;;;;;6.83;2.17;;;6.70;99.90;;;;;;4996243;28;20202;-84
2023/01/12 03:30:20;;;;;;;5.30;1.90;;;6.70;99.90;;;;;;5013612;28;20178;-84
2023/01/12 03:32:46;;;;;;;5.37;2.03;;;6.70;99.90;;;;;;5013484;28;20748;-85
2023/01/12 03:35:12;;;;;;;4.97;1.73;;;6.70;99.90;;;;;;5013820;28;20175;-83
2023/01/12 03:37:56;;;;;;;4.97;1.73;;;6.80;99.90;;;;;;5013631;28;20324;-85
2023/01/12 03:40:45;;;;;;;5.73;1.80;;;6.80;99.90;;;;;;4995998;28;20178;-84
2023/01/12 03:43:36;;;;;;;8.40;2.37;;;6.80;99.90;;;;;;5013405;28;20221;-84
2023/01/12 03:46:15;;;;;;;5.80;1.60;;;6.80;99.90;;;;;;4996174;28;20204;-85
2023/01/12 03:48:46;;;;;;;8.07;2.10;;;6.80;99.90;;;;;;5013429;28;20571;-84
2023/01/12 03:51:24;;;;;;;8.50;1.83;;;6.80;99.90;;;;;;4995732;28;20273;-84
2023/01/12 03:53:51;;;;;;;7.53;2.03;;;6.80;99.90;;;;;;4995565;28;20631;-85
2023/01/12 03:56:19;;;;;;;6.23;1.90;;;6.80;99.90;;;;;;5013486;28;20204;-84
2023/01/12 03:58:46;;;;;;;7.30;1.90;;;6.80;99.90;;;;;;5013295;28;20278;-84
2023/01/12 04:01:12;;;;;;;5.23;1.50;;;6.80;99.90;;;;;;4995519;28;20209;-85
2023/01/12 04:03:37;;;;;;;10.50;1.80;;;6.90;99.90;;;;;;4995535;28;20171;-85
2023/01/12 04:06:03;;;;;;;5.70;1.60;;;6.80;99.90;;;;;;4995463;28;20197;-84
2023/01/12 04:08:29;;;;;;;6.30;1.87;;;6.90;99.90;;;;;;4995357;28;20226;-85
2023/01/12 04:10:55;;;;;;;5.83;1.67;;;6.90;99.90;;;;;;5013110;28;20186;-84
2023/01/12 04:13:21;;;;;;;5.83;1.87;;;6.80;99.90;;;;;;4995344;28;20282;-84
2023/01/12 04:15:46;;;;;;;5.73;1.90;;;6.90;99.90;;;;;;4995508;28;20171;-85
2023/01/12 04:18:12;;;;;;;6.00;2.00;;;6.90;99.90;;;;;;5012742;28;20194;-85
2023/01/12 04:20:38;;;;;;;8.43;1.73;;;6.90;99.90;;;;;;4995083;28;20272;-84
2023/01/12 04:23:06;;;;;;;5.43;1.93;;;6.90;99.90;;;;;;5013049;28;20191;-84
2023/01/12 04:25:32;;;;;;;4.67;1.80;;;6.90;99.90;;;;;;5012848;28;20530;-85
2023/01/12 04:28:00;;;;;;;6.87;1.97;;;6.90;99.90;;;;;;4994933;28;20205;-85
2023/01/12 04:30:27;;;;;;;5.47;1.33;;;6.90;99.90;;;;;;4994552;28;20205;-84
2023/01/12 04:32:54;;;;;;;7.40;2.03;;;6.90;99.90;;;;;;4994973;28;20321;-84
2023/01/12 04:35:20;;;;;;;7.37;2.10;;;6.90;99.90;;;;;;5012553;28;20258;-84
2023/01/12 04:37:45;;;;;;;4.63;1.70;;;6.90;99.90;;;;;;4995252;28;20330;-84
2023/01/12 04:40:13;;;;;;;5.37;1.90;;;6.90;99.90;;;;;;4995029;28;20178;-86
2023/01/12 04:42:59;;;;;;;4.63;1.73;;;6.90;99.90;;;;;;5012678;28;20204;-85
2023/01/12 04:45:26;;;;;;;9.23;2.03;;;7.00;99.90;;;;;;4995063;28;20170;-84
2023/01/12 04:47:51;;;;;;;6.57;1.83;;;7.00;99.90;;;;;;4994595;28;20194;-84
2023/01/12 04:50:17;;;;;;;7.27;2.10;;;7.00;99.90;;;;;;4994822;28;20185;-84
2023/01/12 04:52:42;;;;;;;4.63;1.90;;;7.00;99.90;;;;;;4995070;28;20653;-85
2023/01/12 04:55:08;;;;;;;8.83;2.37;;;7.00;99.90;;;;;;4994796;28;20178;-84
2023/01/12 04:57:34;;;;;;;6.50;1.60;;;7.00;99.90;;;;;;4994851;28;20194;-84
2023/01/12 04:59:59;;;;;;;6.60;2.00;;;7.00;99.90;;;;;;5012193;28;20178;-85
2023/01/12 05:02:26;;;;;;;6.53;2.07;;;6.90;99.90;;;;;;5012225;28;20182;-84
2023/01/12 05:04:52;;;;;;;7.67;2.07;;;7.00;99.90;;;;;;4994734;28;20535;-85
2023/01/12 05:07:17;;;;;;;7.57;2.10;;;6.90;99.90;;;;;;4994709;28;20276;-85
2023/01/12 05:12:27;;;;;;;5.50;1.60;;;7.00;99.90;;;;;;5012636;28;20248;-85
2023/01/12 05:14:53;;;;;;;5.53;1.90;;;7.00;99.90;;;;;;4994693;28;20170;-85
2023/01/12 05:17:18;;;;;;;9.57;1.97;;;7.00;99.90;;;;;;5012145;28;20190;-84
2023/01/12 05:19:44;;;;;;;6.67;2.13;;;6.90;99.90;;;;;;5012149;28;20257;-85
2023/01/12 05:22:10;;;;;;;8.20;1.97;;;6.90;99.90;;;;;;5012401;28;20175;-85
2023/01/12 05:24:35;;;;;;;9.43;2.13;;;6.90;99.90;;;;;;5012175;28;20199;-85
2023/01/12 05:27:01;;;;;;;7.97;1.90;;;7.00;99.90;;;;;;4994191;28;20186;-84
2023/01/12 05:29:27;;;;;;;6.63;1.70;;;6.90;99.90;;;;;;5012094;28;20179;-85
2023/01/12 05:31:53;;;;;;;7.87;2.17;;;7.00;99.90;;;;;;5011659;28;20178;-84
2023/01/12 05:34:19;;;;;;;6.07;2.23;;;7.00;99.90;;;;;;5012111;28;20209;-85
2023/01/12 05:36:45;;;;;;;6.07;1.87;;;7.00;99.90;;;;;;4994512;28;20179;-84
2023/01/12 05:39:11;;;;;;;6.10;1.67;;;7.00;99.90;;;;;;4994618;28;20178;-85
2023/01/12 05:41:36;;;;;;;5.97;1.73;;;7.00;99.90;;;;;;5015203;28;20172;-85
2023/01/12 05:44:02;;;;;;;4.10;1.60;;;7.00;99.90;;;;;;5015867;28;20182;-85
2023/01/12 05:46:30;;;;;;;5.53;1.60;;;7.10;99.90;;;;;;5015688;28;20182;-85
2023/01/12 05:48:56;;;;;;;7.53;1.80;;;7.10;99.90;;;;;;5015808;28;20206;-85
2023/01/12 05:51:24;;;;;;;6.47;2.13;;;7.00;99.90;;;;;;4997912;28;20181;-84
2023/01/12 05:53:50;;;;;;;6.77;1.90;;;7.10;99.90;;;;;;5015725;28;20230;-85
2023/01/12 05:56:24;;;;;;;10.20;2.00;;;7.10;99.90;;;;;;5015655;28;20179;-85
2023/01/12 05:58:52;;;;;;;5.00;1.43;;;7.10;99.90;;;;;;4997762;28;20620;-85
2023/01/12 06:01:19;;;;;;;8.53;1.80;;;7.10;99.90;;;;;;4997543;28;20212;-85
2023/01/12 06:03:48;;;;;;;3.43;1.60;;;7.10;99.90;;;;;;5015335;28;20182;-85
2023/01/12 06:06:14;;;;;;;6.77;1.90;;;7.10;99.90;;;;;;5015580;28;20178;-84
2023/01/12 06:08:40;;;;;;;4.90;1.70;;;7.10;99.90;;;;;;4997689;28;20288;-85
2023/01/12 06:11:05;;;;;;;7.53;1.90;;;7.20;99.90;;;;;;4997667;28;20707;-86
2023/01/12 06:16:15;;;;;;;7.13;1.90;;;7.20;99.90;;;;;;5015394;28;20186;-86
2023/01/12 06:18:40;;;;;;;7.30;1.83;;;7.20;99.90;;;;;;4997739;28;20194;-85
2023/01/12 06:21:08;;;;;;;8.73;1.93;;;7.20;99.90;;;;;;5015025;28;20181;-85
2023/01/12 06:23:33;;;;;;;4.20;1.27;;;7.20;99.90;;;;;;4997794;28;20204;-87
2023/01/12 06:26:00;;;;;;;7.70;1.57;;;7.20;99.90;;;;;;4997538;28;20213;-85
2023/01/12 06:28:27;;;;;;;8.93;1.90;;;7.20;99.90;;;;;;5015219;28;20281;-85
2023/01/12 06:30:57;;;;;;;4.13;1.33;;;7.30;99.90;;;;;;5015002;28;20183;-84
2023/01/12 06:33:24;;;;;;;4.20;1.40;;;7.30;99.90;;;;;;4997370;28;20208;-83
2023/01/12 06:35:49;;;;;;;4.17;1.97;;;7.20;99.90;;;;;;5015014;28;20713;-84
2023/01/12 06:38:15;;;;;;;4.80;1.60;;;7.20;99.90;;;;;;4997319;28;20194;-85
2023/01/12 06:40:41;;;;;;;4.33;1.40;;;7.30;99.90;;;;;;4996925;28;20175;-86
2023/01/12 06:43:06;;;;;;;7.43;1.97;;;7.30;99.90;;;;;;4997304;28;20318;-83
2023/01/12 06:45:32;;;;;;;5.20;1.60;;;7.30;99.90;;;;;;5014828;28;20200;-84
2023/01/12 06:47:57;;;;;;;5.53;1.50;;;7.40;99.90;;;;;;4997298;28;20278;-83
2023/01/12 06:50:23;;;;;;;8.97;2.07;;;7.40;99.90;;;;;;5014595;28;20182;-83
2023/01/12 06:52:49;;;;;;;8.77;1.80;;;7.40;99.90;;;;;;4996297;28;20740;-81
2023/01/12 06:55:15;;;;;;;6.33;1.60;;;7.40;99.90;;;;;;5014559;28;20610;-87
2023/01/12 06:57:40;;;;;;;5.50;1.77;;;7.40;99.90;;;;;;5014621;28;20216;-88
2023/01/12 07:00:11;;;;;;;7.33;1.57;;;7.40;99.90;;;;;;5015103;28;20182;-89
2023/01/12 07:02:37;;;;;;;6.13;1.57;;;7.40;99.90;;;;;;4998173;28;20236;-88
2023/01/12 07:05:03;;;;;;;5.27;1.70;;;7.40;99.90;;;;;;4997468;28;20175;-87
2023/01/12 07:07:28;;;;;;;6.80;1.60;;;7.40;99.90;;;;;;5056787;22;20225;-84
2023/01/12 07:09:54;;;;;;;5.57;1.70;;;7.40;99.90;;;;;;5036722;28;20193;-85
2023/01/12 07:12:19;;;;;;;5.37;1.47;;;7.40;99.90;;;;;;5037020;28;20224;-84
2023/01/12 07:14:45;;;;;;;5.53;1.70;;;7.40;99.90;;;;;;5054988;28;20566;-84
2023/01/12 07:17:11;;;;;;;6.43;1.80;;;7.40;99.90;;;;;;5054950;28;20180;-84
2023/01/12 07:19:37;;;;;;;5.27;1.83;;;7.40;99.90;;;;;;5016902;28;20194;-82
2023/01/12 07:22:02;;;;;;;8.37;2.30;;;7.40;99.90;;;;;;5016682;28;20189;-82
2023/01/12 07:24:28;;;;;;;5.83;2.30;;;7.40;99.90;;;;;;5034597;28;20178;-82
2023/01/12 07:26:56;;;;;;;4.93;1.90;;;7.30;99.90;;;;;;5017503;28;20182;-81
2023/01/12 07:29:22;;;;;;;5.10;1.60;;;7.20;99.90;;;;;;5018077;28;20201;-83
2023/01/12 07:31:48;;;;;;;12.47;4.23;;;7.20;99.90;;;;;;5017962;28;20177;-83
2023/01/12 07:34:13;;;;;;;6.83;1.70;;;7.10;99.90;;;;;;5016413;28;20198;-84
2023/01/12 07:36:40;;;;;;;6.30;1.97;;;7.20;99.90;;;;;;5016027;28;20598;-84
2023/01/12 07:39:07;;;;;;;4.73;2.17;;;7.20;99.90;;;;;;5033987;28;20193;-80
2023/01/12 07:44:17;;;;;;;3.20;1.40;;;7.10;99.90;;;;;;5034102;28;20188;-82
2023/01/12 07:46:43;;;;;;;3.30;1.40;;;7.10;99.90;;;;;;5017386;28;20174;-82
2023/01/12 07:49:08;;;;;;;2.57;1.30;;;7.00;99.90;;;;;;5034852;28;20197;-81
2023/01/12 07:51:34;;;;;;;5.83;1.50;;;7.00;99.90;;;;;;5032808;28;20641;-82
2023/01/12 07:54:00;;;;;;;3.63;1.43;;;6.90;99.90;;;;;;5009481;28;20207;-80
2023/01/12 07:56:25;;;;;;;4.20;1.47;;;7.00;99.90;;;;;;5014319;28;20170;-81
2023/01/12 07:58:51;;;;;;;5.27;1.40;;;7.00;99.90;;;;;;5014194;28;20198;-80
2023/01/12 08:01:16;;;;;;;4.97;1.30;;;7.00;99.90;;;;;;5014731;28;20214;-80
2023/01/12 08:03:42;;;;;;;6.00;1.60;;;7.00;99.90;;;;;;5007275;28;20176;-80
2023/01/12 08:06:08;;;;;;;4.47;1.73;;;7.00;99.90;;;;;;5015567;28;20188;-80
2023/01/12 08:08:34;;;;;;;4.03;1.50;;;7.00;99.90;;;;;;5015079;28;20754;-80
2023/01/12 08:11:05;;;;;;;2.90;1.30;;;6.90;99.90;;;;;;5033587;28;20185;-80
2023/01/12 08:13:31;;;;;;;3.67;1.50;;;6.90;99.90;;;;;;5032543;28;20767;-80
2023/01/12 08:16:04;;;;;;;3.00;1.17;;;6.90;99.90;;;;;;5014941;28;20170;-80
2023/01/12 08:18:36;;;;;;;3.27;1.27;;;6.90;99.90;;;;;;5033380;28;20201;-80
2023/01/12 08:21:05;;;;;;;5.23;1.30;;;6.90;99.90;;;;;;5033351;28;20189;-80
2023/01/12 08:23:35;;;;;;;2.87;1.20;;;6.90;99.90;;;;;;5015859;28;20224;-80
2023/01/12 08:26:05;;;;;;;2.50;1.10;;;6.90;99.90;;;;;;5015896;28;20181;-80
2023/01/12 08:28:35;;;;;;;3.77;1.40;;;6.90;99.90;;;;;;5033376;28;20193;-80
2023/01/12 08:31:01;;;;;;;1.53;1.10;;;7.00;99.90;;;;;;5033455;28;20201;-80
2023/01/12 08:33:27;;;;;;;2.40;1.30;;;7.00;99.90;;;;;;5015750;28;20625;-80
2023/01/12 08:35:53;;;;;;;3.73;1.27;;;7.00;99.90;;;;;;5015857;28;20665;-80
2023/01/12 08:38:19;;;;;;;3.00;1.60;;;6.90;99.90;;;;;;5015482;28;20199;-80
2023/01/12 08:46:13;;;;;;;4.20;1.20;;;7.00;99.90;;;;;;5033612;28;20200;-81
2023/01/12 08:48:39;;;;;;;2.63;1.20;;;7.00;99.90;;;;;;5015731;28;20200;-80
2023/01/12 08:51:06;;;;;;;2.20;1.40;;;7.10;99.90;;;;;;5033399;28;20177;-80
2023/01/12 08:53:33;;;;;;;2.87;1.30;;;7.10;99.90;;;;;;5015272;28;20251;-80
2023/01/12 08:55:58;;;;;;;4.53;1.30;;;7.10;99.90;;;;;;5033742;28;20227;-80
2023/01/12 08:58:24;;;;;;;2.90;1.07;;;7.10;99.90;;;;;;5033618;28;20275;-80
2023/01/12 09:00:50;;;;;;;2.83;1.30;;;7.10;99.90;;;;;;5014582;28;20211;-80
2023/01/12 09:03:15;;;;;;;3.70;1.23;;;7.10;99.90;;;;;;5015082;28;20176;-80
2023/01/12 09:05:41;;;;;;;3.10;1.30;;;7.10;99.90;;;;;;5015025;28;20191;-80
2023/01/12 09:08:07;;;;;;;4.93;1.30;;;7.10;99.90;;;;;;5014586;28;20220;-80
2023/01/12 09:10:32;;;;;;;2.67;1.03;;;7.10;99.90;;;;;;5031858;28;20257;-80
2023/01/12 09:12:58;;;;;;;3.07;1.00;;;7.10;99.90;;;;;;5014466;28;20248;-81
2023/01/12 09:15:24;;;;;;;2.93;1.00;;;7.10;99.90;;;;;;5016052;28;20652;-80
2023/01/12 09:17:53;;;;;;;2.40;1.00;;;7.10;99.90;;;;;;5018508;28;20679;-79
2023/01/12 09:20:19;;;;;;;3.93;1.10;;;7.10;99.90;;;;;;5018319;28;20177;-80
2023/01/12 09:22:44;;;;;;;2.83;1.10;;;7.10;99.90;;;;;;5018993;28;20231;-81
2023/01/12 09:25:10;;;;;;;2.57;0.87;;;7.10;99.90;;;;;;5018507;28;20205;-80
2023/01/12 09:27:36;;;;;;;2.57;1.00;;;7.00;99.90;;;;;;5018629;28;20249;-81
2023/01/12 09:30:02;;;;;;;2.30;0.80;;;7.10;99.90;;;;;;5018388;28;20181;-80
2023/01/12 09:32:27;;;;;;;4.20;1.30;;;7.00;99.90;;;;;;5036314;28;20208;-80
2023/01/12 09:34:53;;;;;;;2.40;1.27;;;7.10;99.90;;;;;;5036078;28;20177;-81
2023/01/12 09:37:19;;;;;;;2.50;1.40;;;7.10;99.90;;;;;;5036170;28;20177;-80
2023/01/12 09:39:44;;;;;;;3.83;1.80;;;7.10;99.90;;;;;;5036065;28;20268;-80
2023/01/12 09:48:00;;;;;;;3.07;1.43;;;7.10;99.90;;;;;;5035989;28;20197;-80
2023/01/12 09:50:57;;;;;;;2.23;1.30;;;7.10;99.90;;;;;;5018073;28;20207;-80
2023/01/12 09:53:30;;;;;;;2.40;1.00;;;7.10;99.90;;;;;;5017923;28;20259;-81
2023/01/12 09:56:11;;;;;;;1.20;0.90;;;7.10;99.90;;;;;;5018112;28;20668;-80
2023/01/12 09:59:17;;;;;;;1.33;1.00;;;7.10;99.90;;;;;;5035833;28;20208;-80
2023/01/12 10:01:44;;;;;;;2.00;0.90;;;7.10;99.90;;;;;;5035019;28;20178;-81
2023/01/12 10:04:11;;;;;;;2.20;1.53;;;7.20;99.90;;;;;;5035695;28;20555;-80
2023/01/12 10:06:37;;;;;;;2.17;1.40;;;7.20;99.90;;;;;;5017848;28;20212;-81
2023/01/12 10:09:05;;;;;;;1.40;1.00;;;7.30;99.90;;;;;;5035475;28;20304;-80
2023/01/12 10:11:40;;;;;;;1.83;1.00;;;7.20;99.90;;;;;;5017608;28;20181;-79
2023/01/12 10:14:18;;;;;;;2.17;1.00;;;7.30;99.90;;;;;;5035787;28;20216;-80
2023/01/12 10:17:02;;;;;;;4.47;2.27;;;7.30;99.90;;;;;;5035249;28;20203;-80
2023/01/12 10:19:44;;;;;;;2.07;1.10;;;7.30;99.90;;;;;;5017604;28;20194;-80
2023/01/12 10:22:38;;;;;;;2.37;1.00;;;7.30;99.90;;;;;;5017646;28;20177;-80
2023/01/12 10:25:25;;;;;;;1.43;1.00;;;7.30;99.90;;;;;;5017921;28;20679;-80
2023/01/12 10:27:53;;;;;;;3.20;0.90;;;7.30;99.90;;;;;;5033964;28;20208;-80
2023/01/12 10:30:25;;;;;;;0.93;0.80;;;7.30;99.90;;;;;;5017213;28;20182;-80
2023/01/12 10:32:50;;;;;;;3.60;1.10;;;7.30;99.90;;;;;;5017637;28;20335;-80
2023/01/12 10:35:19;;;;;;;2.93;1.10;;;7.30;99.90;;;;;;5035722;28;20188;-79
2023/01/12 10:37:50;;;;;;;2.50;0.87;;;7.40;99.90;;;;;;5034991;28;20230;-80
2023/01/12 10:40:27;;;;;;;3.40;0.93;;;7.40;99.90;;;;;;5017158;28;20174;-80
2023/01/12 10:43:22;;;;;;;1.70;0.97;;;7.30;99.90;;;;;;5017383;28;20186;-80
2023/01/12 10:46:07;;;;;;;1.50;1.10;;;7.30;99.90;;;;;;5035285;28;20220;-81
2023/01/12 10:48:33;;;;;;;1.47;0.77;;;7.30;99.90;;;;;;5017169;28;20197;-80
2023/01/12 10:51:02;;;;;;;2.87;1.20;;;7.40;99.90;;;;;;5034449;28;20248;-78
2023/01/12 10:53:50;;;;;;;2.57;1.00;;;7.40;99.90;;;;;;5000261;28;20583;-80
2023/01/12 10:56:22;;;;;;;2.00;1.13;;;7.40;99.90;;;;;;5004582;28;20193;-80
2023/01/12 10:59:01;;;;;;;0.90;0.80;;;7.40;99.90;;;;;;5015779;28;20190;-83
2023/01/12 11:01:46;;;;;;;2.70;1.10;;;7.40;99.90;;;;;;4997816;28;20174;-82
2023/01/12 11:04:22;;;;;;;1.60;0.93;;;7.40;99.90;;;;;;5015305;28;20261;-82
2023/01/12 11:07:08;;;;;;;1.20;1.00;;;7.40;99.90;;;;;;5031789;28;20213;-79
2023/01/12 11:09:33;;;;;;;1.80;1.07;;;7.40;99.90;;;;;;5035677;28;20206;-82
2023/01/12 11:12:16;;;;;;;1.80;1.00;;;7.40;99.90;;;;;;5009535;28;20244;-83
2023/01/12 11:14:41;;;;;;;1.40;1.10;;;7.40;99.90;;;;;;5019121;28;20173;-82
2023/01/12 11:17:30;;;;;;;2.73;1.17;;;7.40;99.90;;;;;;5019967;28;20300;-84
2023/01/12 11:19:58;;;;;;;3.00;1.20;;;7.40;99.90;;;;;;5026654;28;20163;-84
2023/01/12 11:22:30;;;;;;;2.47;1.10;;;7.40;99.90;;;;;;5018926;28;20179;-83
2023/01/12 11:25:05;;;;;;;2.20;1.03;;;7.40;99.90;;;;;;5020084;28;20178;-83
2023/01/12 11:27:38;;;;;;;1.93;0.90;;;7.40;99.90;;;;;;5034705;28;20164;-81
2023/01/12 11:30:13;;;;;;;1.70;1.00;;;7.50;99.90;;;;;;4997541;28;20171;-84
2023/01/12 11:32:43;;;;;;;1.80;1.00;;;7.50;99.90;;;;;;4997592;28;20203;-83
2023/01/12 11:35:27;;;;;;;1.47;1.00;;;7.50;99.90;;;;;;5001952;28;20197;-82
2023/01/12 11:37:58;;;;;;;1.57;0.90;;;7.60;99.90;;;;;;5018649;28;20189;-82
2023/01/12 11:40:32;;;;;;;3.07;1.10;;;7.50;99.90;;;;;;5015780;28;20174;-82
2023/01/12 11:43:50;;;;;;;3.07;1.17;;;7.50;99.90;;;;;;5033691;28;20181;-81
2023/01/12 11:46:41;;;;;;;2.10;1.00;;;7.50;99.90;;;;;;5016284;28;20209;-82
2023/01/12 11:49:30;;;;;;;1.37;1.10;;;7.50;99.90;;;;;;5033683;28;20585;-82
2023/01/12 11:51:58;;;;;;;3.80;2.50;;;7.50;99.90;;;;;;5014137;28;20171;-82
2023/01/12 11:54:28;;;;;;;2.53;1.60;;;7.50;99.90;;;;;;5014125;28;20203;-81
2023/01/12 11:57:39;;;;;;;4.00;1.30;;;7.50;99.90;;;;;;4996465;28;20542;-82
2023/01/12 12:00:32;;;;;;;3.27;1.17;;;7.50;99.90;;;;;;4996052;28;20175;-81
2023/01/12 12:03:31;;;;;;;1.43;1.30;;;7.40;99.90;;;;;;5014026;28;20187;-76
2023/01/12 12:06:22;;;;;;;3.20;1.00;;;7.50;99.90;;;;;;5021248;28;20673;-79
2023/01/12 12:09:20;;;;;;;3.07;1.30;;;7.50;99.90;;;;;;4996097;28;20260;-79
2023/01/12 12:11:59;;;;;;;2.80;1.43;;;7.50;99.90;;;;;;4996531;28;20175;-79
2023/01/12 12:14:28;;;;;;;2.83;1.10;;;7.50;99.90;;;;;;5013567;28;20217;-79
2023/01/12 12:17:08;;;;;;;2.20;1.10;;;7.60;99.90;;;;;;4996444;28;20665;-79
2023/01/12 12:19:58;;;;;;;1.80;1.10;;;7.60;99.90;;;;;;4996391;28;20198;-79
2023/01/12 12:22:38;;;;;;;1.97;1.10;;;7.60;99.90;;;;;;4995833;28;20175;-79
2023/01/12 12:25:18;;;;;;;1.80;0.97;;;7.60;99.90;;;;;;5013521;28;20240;-79
2023/01/12 12:28:04;;;;;;;1.73;1.10;;;7.60;99.90;;;;;;5000025;28;20244;-80
2023/01/12 12:30:52;;;;;;;3.37;1.00;;;7.60;99.90;;;;;;5033446;28;20193;-79
2023/01/12 12:33:42;;;;;;;1.87;1.03;;;7.60;99.90;;;;;;5026854;28;20269;-79
2023/01/12 12:36:23;;;;;;;1.70;0.80;;;7.70;99.90;;;;;;4999511;28;20254;-79
2023/01/12 12:39:11;;;;;;;1.30;0.90;;;7.70;99.90;;;;;;5007537;28;20198;-79
2023/01/12 12:47:52;;;;;;;1.67;0.90;;;7.70;99.90;;;;;;5033118;28;20237;-79
2023/01/12 12:50:28;;;;;;;2.10;0.80;;;7.70;99.90;;;;;;5032384;28;20177;-80
2023/01/12 12:53:15;;;;;;;1.67;1.00;;;7.70;99.90;;;;;;5032956;28;20205;-79
2023/01/12 12:55:42;;;;;;;1.33;0.87;;;7.80;99.90;;;;;;5032767;28;20550;-79
2023/01/12 12:58:19;;;;;;;2.43;1.10;;;7.80;99.90;;;;;;5033096;28;20256;-81
2023/01/12 13:00:45;;;;;;;2.40;0.90;;;7.70;99.90;;;;;;5015117;28;20177;-80
2023/01/12 13:03:40;;;;;;;1.23;0.97;;;7.70;99.90;;;;;;5014711;28;20170;-79
2023/01/12 13:06:22;;;;;;;3.80;1.17;;;7.70;99.90;;;;;;5031328;28;20173;-80
2023/01/12 13:08:57;;;;;;;2.17;1.00;;;7.70;99.90;;;;;;5029028;22;20692;-84
2023/01/12 13:11:45;;;;;;;2.40;1.20;;;7.70;99.90;;;;;;5016374;28;20704;-85
2023/01/12 13:14:19;;;;;;;1.73;0.90;;;7.70;99.90;;;;;;5014375;28;20198;-84
2023/01/12 13:16:50;;;;;;;2.20;0.97;;;7.70;99.90;;;;;;5013391;28;20193;-84
2023/01/12 13:19:41;;;;;;;2.40;0.90;;;7.70;99.90;;;;;;5012726;28;20195;-84
2023/01/12 13:22:31;;;;;;;1.70;1.00;;;7.80;99.90;;;;;;5023809;28;20192;-84
2023/01/12 13:25:23;;;;;;;2.43;1.50;;;7.80;99.90;;;;;;5014674;28;20169;-85
2023/01/12 13:27:54;;;;;;;2.17;1.27;;;7.80;99.90;;;;;;5008717;28;20183;-84
2023/01/12 13:30:28;;;;;;;1.30;0.90;;;7.80;99.90;;;;;;5032119;28;20168;-83
2023/01/12 13:33:14;;;;;;;1.70;0.80;;;7.80;99.90;;;;;;4997045;28;20256;-83
2023/01/12 13:35:43;;;;;;;1.80;1.00;;;7.80;99.90;;;;;;4994727;28;20218;-85
2023/01/12 13:38:26;;;;;;;2.47;1.03;;;7.90;99.90;;;;;;4991676;28;20214;-80
2023/01/12 13:40:58;;;;;;;1.00;0.80;;;7.80;99.90;;;;;;5009807;28;20202;-83
2023/01/12 13:43:29;;;;;;;0.80;0.70;;;7.80;99.90;;;;;;5021282;28;20261;-84
2023/01/12 13:46:11;;;;;;;1.90;1.00;;;7.90;99.90;;;;;;5008936;28;20261;-84
2023/01/12 13:48:40;;;;;;;12.57;7.37;;;7.90;99.90;;;;;;5014400;28;20206;-86
2023/01/12 13:51:15;;;;;;;2.63;1.13;;;7.90;99.90;;;;;;5013828;28;20171;-85
2023/01/12 13:53:41;;;;;;;1.67;1.10;;;7.90;99.90;;;;;;5031412;28;20273;-87
2023/01/12 13:56:17;;;;;;;2.03;1.10;;;7.90;99.90;;;;;;5031440;28;20175;-86
2023/01/12 13:58:43;;;;;;;1.77;0.90;;;8.00;99.90;;;;;;5031315;28;20217;-86